一肖中特,郯城招聘打字员,历城信息港,横县二中贴吧,广西招聘打字员
辽阳吧 辽阳特产 辽阳新闻网 辽阳天气 辽阳百姓网
   

产品导航




















  
当前位置:一肖中特

  一肖中特SBRD 082030Z 00000KT 9999 FEW020 BKN100 25/23 Q1007=

  2015年全年无论是完成定向增发的上市公司数量,还是规模,均创下了历史新高。 账面上,篮网队的薪金并不是史上最高的,06-07赛季尼克斯曾烧过1.2亿的税前总工资,但由于本赛季采用了奢侈税累进税的征收方式,篮网逼近2亿的税后工资是史无前例。

  物价涨幅平稳,全年居民消费价格同比上涨1.4%。 中国股市整体没有在一天跌到10以下,就因为我们有涨跌停板。

  

  “双独”两孩一直到2011年全国才全部实现,2013年党的十八届三中全会作出了单独两孩的决策,紧接着也就是去年十八届五中全会作出了全面两孩的决策。

  

   “生活不只是苟且,还有诗和远方”。

  ”

    新安晚报 安徽网记者查询发现,郎克友在网上早已经是“名人”了。

  

  【外媒:中国动用5130亿美元支撑股市】据奥地利《新闻报》1月11日报道,自从去年夏天市场首度大跌以来,北京已经为支撑股市和

   因此,有必要进一步剖析股价影响深圳房价的机理。

   前锋

友情链接:
曾道人 香港正版挂牌之全篇 香港马会资料大全 香港马会资料 香港历史开奖记录 今期开码结果开奖 东方心经马报 四肖中特期期准 2017年香港全年资料 香港赛马会资料 118图库 王中王开奖结果 118图库彩图图库 118图库彩图 正版免费料大全 2017年香港全年资料 今晚二肖必中特 香港马会开奖结果直播 今晚开奖结果现场直播 今期东方心经马报 今晚开奖现场直播2017年 2017香港开奖现场直播 香港王中王网站 真正香港一码中特图 香港官方网免费资料 香港最准一肖一码 最准的特马网站 香港赛马会官方网 香港赛马会唯一官方网 手机看开奖结果 香港最快开奖结果 特码开奖结果查询 香港正版挂牌之全篇 香港金多宝开奖结果 香港马会 开奖直播 2017香港历史开奖记录 马会免费特供资料站


本站所有站内信息仅供娱乐参考,不作任何商业用途,不以营利为目的,专注分享快乐,欢迎收藏本站!
所有信息均来自:百度一下(辽阳大杂烩)